sensor_id;sensor_type;location;lat;lon;timestamp;temperature;humidity
6822;DHT22;3449;48.728;8.968;2023-06-14T00:00:16;14.40;99.90
6822;DHT22;3449;48.728;8.968;2023-06-14T00:02:43;14.40;99.90
6822;DHT22;3449;48.728;8.968;2023-06-14T00:05:10;14.40;99.90
6822;DHT22;3449;48.728;8.968;2023-06-14T00:07:40;14.30;99.90
6822;DHT22;3449;48.728;8.968;2023-06-14T00:10:10;14.10;99.90
6822;DHT22;3449;48.728;8.968;2023-06-14T00:12:38;14.00;99.90
6822;DHT22;3449;48.728;8.968;2023-06-14T00:15:06;14.00;99.90
6822;DHT22;3449;48.728;8.968;2023-06-14T00:17:35;13.90;99.90
6822;DHT22;3449;48.728;8.968;2023-06-14T00:20:02;13.80;99.90
6822;DHT22;3449;48.728;8.968;2023-06-14T00:22:31;13.80;99.90
6822;DHT22;3449;48.728;8.968;2023-06-14T00:24:58;13.80;99.90
6822;DHT22;3449;48.728;8.968;2023-06-14T00:27:26;13.80;99.90
6822;DHT22;3449;48.728;8.968;2023-06-14T00:29:53;13.70;99.90
6822;DHT22;3449;48.728;8.968;2023-06-14T00:32:20;13.60;99.90
6822;DHT22;3449;48.728;8.968;2023-06-14T00:34:51;13.60;99.90
6822;DHT22;3449;48.728;8.968;2023-06-14T00:37:18;13.70;99.90
6822;DHT22;3449;48.728;8.968;2023-06-14T00:39:44;13.70;99.90
6822;DHT22;3449;48.728;8.968;2023-06-14T00:42:12;13.70;99.90
6822;DHT22;3449;48.728;8.968;2023-06-14T00:44:50;13.70;99.90
6822;DHT22;3449;48.728;8.968;2023-06-14T00:47:17;13.70;99.90
6822;DHT22;3449;48.728;8.968;2023-06-14T00:49:46;13.70;99.90
6822;DHT22;3449;48.728;8.968;2023-06-14T00:52:13;13.70;99.90
6822;DHT22;3449;48.728;8.968;2023-06-14T00:54:40;13.70;99.90
6822;DHT22;3449;48.728;8.968;2023-06-14T00:57:08;13.70;99.90
6822;DHT22;3449;48.728;8.968;2023-06-14T00:59:40;13.70;99.90
6822;DHT22;3449;48.728;8.968;2023-06-14T01:02:09;13.70;99.90
6822;DHT22;3449;48.728;8.968;2023-06-14T01:04:37;13.70;99.90
6822;DHT22;3449;48.728;8.968;2023-06-14T01:07:10;13.60;99.90
6822;DHT22;3449;48.728;8.968;2023-06-14T01:10:06;13.50;99.90
6822;DHT22;3449;48.728;8.968;2023-06-14T01:12:39;13.50;99.90
6822;DHT22;3449;48.728;8.968;2023-06-14T01:15:08;13.40;99.90
6822;DHT22;3449;48.728;8.968;2023-06-14T01:17:37;13.30;99.90
6822;DHT22;3449;48.728;8.968;2023-06-14T01:20:10;13.20;99.90
6822;DHT22;3449;48.728;8.968;2023-06-14T01:22:50;13.10;99.90
6822;DHT22;3449;48.728;8.968;2023-06-14T01:25:17;13.00;99.90
6822;DHT22;3449;48.728;8.968;2023-06-14T01:27:47;12.90;99.90
6822;DHT22;3449;48.728;8.968;2023-06-14T01:30:15;12.80;99.90
6822;DHT22;3449;48.728;8.968;2023-06-14T01:32:42;12.80;99.90
6822;DHT22;3449;48.728;8.968;2023-06-14T01:35:10;12.70;99.90
6822;DHT22;3449;48.728;8.968;2023-06-14T01:37:37;12.70;99.90
6822;DHT22;3449;48.728;8.968;2023-06-14T01:40:08;12.60;99.90
6822;DHT22;3449;48.728;8.968;2023-06-14T01:42:37;12.50;99.90
6822;DHT22;3449;48.728;8.968;2023-06-14T01:45:06;12.60;99.90
6822;DHT22;3449;48.728;8.968;2023-06-14T01:47:34;12.60;99.90
6822;DHT22;3449;48.728;8.968;2023-06-14T01:50:01;12.60;99.90
6822;DHT22;3449;48.728;8.968;2023-06-14T01:52:28;12.70;99.90
6822;DHT22;3449;48.728;8.968;2023-06-14T01:54:55;12.60;99.90
6822;DHT22;3449;48.728;8.968;2023-06-14T01:57:25;12.60;99.90
6822;DHT22;3449;48.728;8.968;2023-06-14T01:59:52;12.60;99.90
6822;DHT22;3449;48.728;8.968;2023-06-14T02:02:19;12.60;99.90
6822;DHT22;3449;48.728;8.968;2023-06-14T02:04:46;12.50;99.90
6822;DHT22;3449;48.728;8.968;2023-06-14T02:07:14;12.50;99.90
6822;DHT22;3449;48.728;8.968;2023-06-14T02:09:41;12.50;99.90
6822;DHT22;3449;48.728;8.968;2023-06-14T02:12:08;12.50;99.90
6822;DHT22;3449;48.728;8.968;2023-06-14T02:14:37;12.40;99.90
6822;DHT22;3449;48.728;8.968;2023-06-14T02:17:05;12.40;99.90
6822;DHT22;3449;48.728;8.968;2023-06-14T02:19:32;12.30;99.90
6822;DHT22;3449;48.728;8.968;2023-06-14T02:21:59;12.30;99.90
6822;DHT22;3449;48.728;8.968;2023-06-14T02:24:26;12.30;99.90
6822;DHT22;3449;48.728;8.968;2023-06-14T02:26:53;12.20;99.90
6822;DHT22;3449;48.728;8.968;2023-06-14T02:29:20;12.20;99.90
6822;DHT22;3449;48.728;8.968;2023-06-14T02:31:48;12.10;99.90
6822;DHT22;3449;48.728;8.968;2023-06-14T02:34:15;12.10;99.90
6822;DHT22;3449;48.728;8.968;2023-06-14T02:36:43;12.00;99.90
6822;DHT22;3449;48.728;8.968;2023-06-14T02:39:11;12.00;99.90
6822;DHT22;3449;48.728;8.968;2023-06-14T02:41:38;12.00;99.90
6822;DHT22;3449;48.728;8.968;2023-06-14T02:44:05;11.90;99.90
6822;DHT22;3449;48.728;8.968;2023-06-14T02:46:32;11.90;99.90
6822;DHT22;3449;48.728;8.968;2023-06-14T02:49:01;11.90;99.90
6822;DHT22;3449;48.728;8.968;2023-06-14T02:51:27;11.90;99.90
6822;DHT22;3449;48.728;8.968;2023-06-14T02:53:54;11.80;99.90
6822;DHT22;3449;48.728;8.968;2023-06-14T02:56:21;11.80;99.90
6822;DHT22;3449;48.728;8.968;2023-06-14T02:58:48;11.70;99.90
6822;DHT22;3449;48.728;8.968;2023-06-14T03:01:16;11.70;99.90
6822;DHT22;3449;48.728;8.968;2023-06-14T03:03:43;11.60;99.90
6822;DHT22;3449;48.728;8.968;2023-06-14T03:06:11;11.50;99.90
6822;DHT22;3449;48.728;8.968;2023-06-14T03:08:39;11.50;99.90
6822;DHT22;3449;48.728;8.968;2023-06-14T03:11:07;11.50;99.90
6822;DHT22;3449;48.728;8.968;2023-06-14T03:13:34;11.40;99.90
6822;DHT22;3449;48.728;8.968;2023-06-14T03:16:01;11.40;99.90
6822;DHT22;3449;48.728;8.968;2023-06-14T03:18:29;11.40;99.90
6822;DHT22;3449;48.728;8.968;2023-06-14T03:21:00;11.40;99.90
6822;DHT22;3449;48.728;8.968;2023-06-14T03:23:29;11.40;99.90
6822;DHT22;3449;48.728;8.968;2023-06-14T03:25:56;11.40;99.90
6822;DHT22;3449;48.728;8.968;2023-06-14T03:28:23;11.30;99.90
6822;DHT22;3449;48.728;8.968;2023-06-14T03:30:51;11.30;99.90
6822;DHT22;3449;48.728;8.968;2023-06-14T03:33:18;11.30;99.90
6822;DHT22;3449;48.728;8.968;2023-06-14T03:35:45;11.20;99.90
6822;DHT22;3449;48.728;8.968;2023-06-14T03:38:11;11.20;99.90
6822;DHT22;3449;48.728;8.968;2023-06-14T03:40:40;11.10;99.90
6822;DHT22;3449;48.728;8.968;2023-06-14T03:43:07;11.00;99.90
6822;DHT22;3449;48.728;8.968;2023-06-14T03:45:33;11.00;99.90
6822;DHT22;3449;48.728;8.968;2023-06-14T03:48:00;11.00;99.90
6822;DHT22;3449;48.728;8.968;2023-06-14T03:50:28;10.90;99.90
6822;DHT22;3449;48.728;8.968;2023-06-14T03:52:55;11.00;99.90
6822;DHT22;3449;48.728;8.968;2023-06-14T03:55:22;11.00;99.90
6822;DHT22;3449;48.728;8.968;2023-06-14T03:57:52;11.00;99.90
6822;DHT22;3449;48.728;8.968;2023-06-14T04:00:19;11.00;99.90
6822;DHT22;3449;48.728;8.968;2023-06-14T04:02:46;11.00;99.90
6822;DHT22;3449;48.728;8.968;2023-06-14T04:05:13;11.00;99.90
6822;DHT22;3449;48.728;8.968;2023-06-14T04:07:42;11.10;99.90
6822;DHT22;3449;48.728;8.968;2023-06-14T04:10:11;11.10;99.90
6822;DHT22;3449;48.728;8.968;2023-06-14T04:12:38;11.10;99.90
6822;DHT22;3449;48.728;8.968;2023-06-14T04:15:08;11.10;99.90
6822;DHT22;3449;48.728;8.968;2023-06-14T04:17:36;11.20;99.90
6822;DHT22;3449;48.728;8.968;2023-06-14T04:20:04;11.30;99.90
6822;DHT22;3449;48.728;8.968;2023-06-14T04:22:35;11.30;99.90
6822;DHT22;3449;48.728;8.968;2023-06-14T04:25:02;11.30;99.90
6822;DHT22;3449;48.728;8.968;2023-06-14T04:27:31;11.30;99.90
6822;DHT22;3449;48.728;8.968;2023-06-14T04:30:02;11.50;99.90
6822;DHT22;3449;48.728;8.968;2023-06-14T04:32:31;11.50;99.90
6822;DHT22;3449;48.728;8.968;2023-06-14T04:34:59;11.60;99.90
6822;DHT22;3449;48.728;8.968;2023-06-14T04:37:27;11.70;99.90
6822;DHT22;3449;48.728;8.968;2023-06-14T04:39:54;11.80;99.90
6822;DHT22;3449;48.728;8.968;2023-06-14T04:42:22;11.80;99.90
6822;DHT22;3449;48.728;8.968;2023-06-14T04:44:51;11.90;99.90
6822;DHT22;3449;48.728;8.968;2023-06-14T04:47:21;12.00;99.90
6822;DHT22;3449;48.728;8.968;2023-06-14T04:49:51;12.20;99.90
6822;DHT22;3449;48.728;8.968;2023-06-14T04:52:19;12.30;99.90
6822;DHT22;3449;48.728;8.968;2023-06-14T04:54:47;12.50;99.90
6822;DHT22;3449;48.728;8.968;2023-06-14T04:57:14;12.60;99.90
6822;DHT22;3449;48.728;8.968;2023-06-14T04:59:42;12.70;99.90
6822;DHT22;3449;48.728;8.968;2023-06-14T05:02:09;12.90;99.90
6822;DHT22;3449;48.728;8.968;2023-06-14T05:04:37;13.00;99.90
6822;DHT22;3449;48.728;8.968;2023-06-14T05:07:09;13.10;99.90
6822;DHT22;3449;48.728;8.968;2023-06-14T05:09:36;13.20;99.90
6822;DHT22;3449;48.728;8.968;2023-06-14T05:12:03;13.40;99.90
6822;DHT22;3449;48.728;8.968;2023-06-14T05:14:33;13.50;99.90
6822;DHT22;3449;48.728;8.968;2023-06-14T05:17:00;13.60;99.90
6822;DHT22;3449;48.728;8.968;2023-06-14T05:19:28;13.70;99.90
6822;DHT22;3449;48.728;8.968;2023-06-14T05:21:55;13.80;99.90
6822;DHT22;3449;48.728;8.968;2023-06-14T05:24:23;13.90;99.90
6822;DHT22;3449;48.728;8.968;2023-06-14T05:26:50;14.00;99.90
6822;DHT22;3449;48.728;8.968;2023-06-14T05:29:17;14.10;99.90
6822;DHT22;3449;48.728;8.968;2023-06-14T05:31:44;14.20;99.90
6822;DHT22;3449;48.728;8.968;2023-06-14T05:34:11;14.30;99.90
6822;DHT22;3449;48.728;8.968;2023-06-14T05:36:38;14.40;99.90
6822;DHT22;3449;48.728;8.968;2023-06-14T05:39:05;14.60;99.90
6822;DHT22;3449;48.728;8.968;2023-06-14T05:41:33;14.80;99.90
6822;DHT22;3449;48.728;8.968;2023-06-14T05:44:01;15.10;99.90
6822;DHT22;3449;48.728;8.968;2023-06-14T05:46:28;15.30;99.90
6822;DHT22;3449;48.728;8.968;2023-06-14T05:48:55;15.50;99.90
6822;DHT22;3449;48.728;8.968;2023-06-14T05:51:23;15.70;99.90
6822;DHT22;3449;48.728;8.968;2023-06-14T05:53:50;15.80;99.90
6822;DHT22;3449;48.728;8.968;2023-06-14T05:56:18;15.90;99.90
6822;DHT22;3449;48.728;8.968;2023-06-14T05:58:46;16.00;99.90
6822;DHT22;3449;48.728;8.968;2023-06-14T06:01:14;16.10;99.90
6822;DHT22;3449;48.728;8.968;2023-06-14T06:03:41;16.30;99.90
6822;DHT22;3449;48.728;8.968;2023-06-14T06:06:11;16.50;99.90
6822;DHT22;3449;48.728;8.968;2023-06-14T06:08:38;16.60;99.90
6822;DHT22;3449;48.728;8.968;2023-06-14T06:11:06;16.70;99.90
6822;DHT22;3449;48.728;8.968;2023-06-14T06:13:33;16.90;99.90
6822;DHT22;3449;48.728;8.968;2023-06-14T06:16:02;17.10;99.90
6822;DHT22;3449;48.728;8.968;2023-06-14T06:18:29;17.20;99.90
6822;DHT22;3449;48.728;8.968;2023-06-14T06:20:55;17.30;99.90
6822;DHT22;3449;48.728;8.968;2023-06-14T06:23:22;17.40;99.90
6822;DHT22;3449;48.728;8.968;2023-06-14T06:25:50;17.60;99.90
6822;DHT22;3449;48.728;8.968;2023-06-14T06:28:17;17.60;99.90
6822;DHT22;3449;48.728;8.968;2023-06-14T06:30:44;17.80;99.90
6822;DHT22;3449;48.728;8.968;2023-06-14T06:33:13;18.00;99.90
6822;DHT22;3449;48.728;8.968;2023-06-14T06:35:40;18.20;99.90
6822;DHT22;3449;48.728;8.968;2023-06-14T06:38:07;18.30;99.90
6822;DHT22;3449;48.728;8.968;2023-06-14T06:40:35;18.50;99.90
6822;DHT22;3449;48.728;8.968;2023-06-14T06:43:02;18.60;99.90
6822;DHT22;3449;48.728;8.968;2023-06-14T06:45:29;18.70;99.90
6822;DHT22;3449;48.728;8.968;2023-06-14T06:47:56;18.70;99.90
6822;DHT22;3449;48.728;8.968;2023-06-14T06:50:24;18.70;99.90
6822;DHT22;3449;48.728;8.968;2023-06-14T06:52:51;18.80;99.90
6822;DHT22;3449;48.728;8.968;2023-06-14T06:55:19;19.00;99.90
6822;DHT22;3449;48.728;8.968;2023-06-14T06:57:45;19.20;99.90
6822;DHT22;3449;48.728;8.968;2023-06-14T07:00:13;19.40;99.90
6822;DHT22;3449;48.728;8.968;2023-06-14T07:02:40;19.40;99.90
6822;DHT22;3449;48.728;8.968;2023-06-14T07:05:06;19.50;99.90
6822;DHT22;3449;48.728;8.968;2023-06-14T07:07:35;19.50;99.90
6822;DHT22;3449;48.728;8.968;2023-06-14T07:10:02;19.60;99.90
6822;DHT22;3449;48.728;8.968;2023-06-14T07:12:30;19.70;99.90
6822;DHT22;3449;48.728;8.968;2023-06-14T07:14:59;19.70;99.90
6822;DHT22;3449;48.728;8.968;2023-06-14T07:17:26;19.80;99.90
6822;DHT22;3449;48.728;8.968;2023-06-14T07:19:53;19.90;99.90
6822;DHT22;3449;48.728;8.968;2023-06-14T07:22:20;20.00;99.90
6822;DHT22;3449;48.728;8.968;2023-06-14T07:24:48;20.30;99.90
6822;DHT22;3449;48.728;8.968;2023-06-14T07:27:15;20.20;99.90
6822;DHT22;3449;48.728;8.968;2023-06-14T07:29:42;20.20;99.90
6822;DHT22;3449;48.728;8.968;2023-06-14T07:32:09;20.20;99.90
6822;DHT22;3449;48.728;8.968;2023-06-14T07:34:36;20.20;99.90
6822;DHT22;3449;48.728;8.968;2023-06-14T07:37:03;20.40;99.90
6822;DHT22;3449;48.728;8.968;2023-06-14T07:39:30;20.60;99.90
6822;DHT22;3449;48.728;8.968;2023-06-14T07:41:58;20.70;99.90
6822;DHT22;3449;48.728;8.968;2023-06-14T07:44:29;21.00;99.90
6822;DHT22;3449;48.728;8.968;2023-06-14T07:46:56;21.10;99.90
6822;DHT22;3449;48.728;8.968;2023-06-14T07:49:24;21.10;99.90
6822;DHT22;3449;48.728;8.968;2023-06-14T07:51:51;21.40;99.90
6822;DHT22;3449;48.728;8.968;2023-06-14T07:54:19;21.50;99.90
6822;DHT22;3449;48.728;8.968;2023-06-14T07:56:50;21.70;99.90
6822;DHT22;3449;48.728;8.968;2023-06-14T07:59:18;21.60;99.90
6822;DHT22;3449;48.728;8.968;2023-06-14T08:01:45;21.60;99.90
6822;DHT22;3449;48.728;8.968;2023-06-14T08:04:12;21.50;99.90
6822;DHT22;3449;48.728;8.968;2023-06-14T08:06:39;21.50;99.90
6822;DHT22;3449;48.728;8.968;2023-06-14T08:09:09;21.60;99.90
6822;DHT22;3449;48.728;8.968;2023-06-14T08:11:36;21.60;99.90
6822;DHT22;3449;48.728;8.968;2023-06-14T08:14:03;21.60;99.90
6822;DHT22;3449;48.728;8.968;2023-06-14T08:16:31;21.70;99.90
6822;DHT22;3449;48.728;8.968;2023-06-14T08:18:58;21.60;99.90
6822;DHT22;3449;48.728;8.968;2023-06-14T08:21:25;21.60;99.90
6822;DHT22;3449;48.728;8.968;2023-06-14T08:23:53;21.80;99.90
6822;DHT22;3449;48.728;8.968;2023-06-14T08:26:20;21.90;99.90
6822;DHT22;3449;48.728;8.968;2023-06-14T08:28:47;22.00;99.90
6822;DHT22;3449;48.728;8.968;2023-06-14T08:31:14;22.00;99.90
6822;DHT22;3449;48.728;8.968;2023-06-14T08:33:42;22.10;99.90
6822;DHT22;3449;48.728;8.968;2023-06-14T08:36:09;22.20;99.90
6822;DHT22;3449;48.728;8.968;2023-06-14T08:38:37;22.50;99.90
6822;DHT22;3449;48.728;8.968;2023-06-14T08:41:05;22.60;99.90
6822;DHT22;3449;48.728;8.968;2023-06-14T08:43:32;22.80;99.90
6822;DHT22;3449;48.728;8.968;2023-06-14T08:46:02;22.90;99.90
6822;DHT22;3449;48.728;8.968;2023-06-14T08:48:30;23.10;99.90
6822;DHT22;3449;48.728;8.968;2023-06-14T08:51:00;23.10;99.90
6822;DHT22;3449;48.728;8.968;2023-06-14T08:53:30;23.00;99.90
6822;DHT22;3449;48.728;8.968;2023-06-14T08:55:59;23.00;99.90
6822;DHT22;3449;48.728;8.968;2023-06-14T08:58:27;22.90;99.90
6822;DHT22;3449;48.728;8.968;2023-06-14T09:00:57;22.90;99.90
6822;DHT22;3449;48.728;8.968;2023-06-14T09:03:24;23.20;99.90
6822;DHT22;3449;48.728;8.968;2023-06-14T09:05:55;23.30;99.90
6822;DHT22;3449;48.728;8.968;2023-06-14T09:08:26;23.50;99.90
6822;DHT22;3449;48.728;8.968;2023-06-14T09:10:56;23.40;99.90
6822;DHT22;3449;48.728;8.968;2023-06-14T09:13:23;23.40;99.90
6822;DHT22;3449;48.728;8.968;2023-06-14T09:15:50;23.20;99.90
6822;DHT22;3449;48.728;8.968;2023-06-14T09:18:17;23.00;99.90
6822;DHT22;3449;48.728;8.968;2023-06-14T09:20:45;23.30;99.90
6822;DHT22;3449;48.728;8.968;2023-06-14T09:23:14;23.40;99.90
6822;DHT22;3449;48.728;8.968;2023-06-14T09:25:48;23.60;99.90
6822;DHT22;3449;48.728;8.968;2023-06-14T09:28:15;23.70;99.90
6822;DHT22;3449;48.728;8.968;2023-06-14T09:30:42;23.90;99.90
6822;DHT22;3449;48.728;8.968;2023-06-14T09:33:09;23.60;99.90
6822;DHT22;3449;48.728;8.968;2023-06-14T09:35:36;23.70;99.90
6822;DHT22;3449;48.728;8.968;2023-06-14T09:38:03;23.80;99.90
6822;DHT22;3449;48.728;8.968;2023-06-14T09:40:34;24.10;99.90
6822;DHT22;3449;48.728;8.968;2023-06-14T09:43:04;24.40;99.90
6822;DHT22;3449;48.728;8.968;2023-06-14T09:45:31;24.80;99.90
6822;DHT22;3449;48.728;8.968;2023-06-14T09:47:58;24.60;99.90
6822;DHT22;3449;48.728;8.968;2023-06-14T09:50:25;24.90;99.90
6822;DHT22;3449;48.728;8.968;2023-06-14T09:52:52;25.10;99.90
6822;DHT22;3449;48.728;8.968;2023-06-14T09:55:24;25.10;99.90
6822;DHT22;3449;48.728;8.968;2023-06-14T09:57:56;24.50;99.90
6822;DHT22;3449;48.728;8.968;2023-06-14T10:00:26;24.50;99.90
6822;DHT22;3449;48.728;8.968;2023-06-14T10:02:55;24.60;99.90
6822;DHT22;3449;48.728;8.968;2023-06-14T10:05:27;24.60;99.90
6822;DHT22;3449;48.728;8.968;2023-06-14T10:08:00;24.60;99.90
6822;DHT22;3449;48.728;8.968;2023-06-14T10:10:30;25.00;99.90
6822;DHT22;3449;48.728;8.968;2023-06-14T10:12:57;25.00;99.60
6822;DHT22;3449;48.728;8.968;2023-06-14T10:15:30;25.10;98.20
6822;DHT22;3449;48.728;8.968;2023-06-14T10:18:02;25.30;96.30
6822;DHT22;3449;48.728;8.968;2023-06-14T10:20:35;25.80;95.70
6822;DHT22;3449;48.728;8.968;2023-06-14T10:23:08;25.70;94.50
6822;DHT22;3449;48.728;8.968;2023-06-14T10:25:37;25.80;95.20
6822;DHT22;3449;48.728;8.968;2023-06-14T10:28:14;25.90;95.20
6822;DHT22;3449;48.728;8.968;2023-06-14T10:31:08;25.80;93.60
6822;DHT22;3449;48.728;8.968;2023-06-14T10:33:36;25.70;92.30
6822;DHT22;3449;48.728;8.968;2023-06-14T10:36:09;25.70;92.60
6822;DHT22;3449;48.728;8.968;2023-06-14T10:38:37;25.50;93.00
6822;DHT22;3449;48.728;8.968;2023-06-14T10:41:04;25.90;92.90
6822;DHT22;3449;48.728;8.968;2023-06-14T10:43:32;25.90;91.90
6822;DHT22;3449;48.728;8.968;2023-06-14T10:46:19;25.90;91.00
6822;DHT22;3449;48.728;8.968;2023-06-14T10:48:48;26.00;90.80
6822;DHT22;3449;48.728;8.968;2023-06-14T10:51:19;26.70;89.70
6822;DHT22;3449;48.728;8.968;2023-06-14T10:53:47;26.10;90.10
6822;DHT22;3449;48.728;8.968;2023-06-14T10:56:27;26.10;91.10
6822;DHT22;3449;48.728;8.968;2023-06-14T10:58:54;26.30;90.70
6822;DHT22;3449;48.728;8.968;2023-06-14T11:01:32;26.60;90.90
6822;DHT22;3449;48.728;8.968;2023-06-14T11:04:08;26.40;91.00
6822;DHT22;3449;48.728;8.968;2023-06-14T11:06:46;25.90;91.30
6822;DHT22;3449;48.728;8.968;2023-06-14T11:12:21;25.60;90.60
6822;DHT22;3449;48.728;8.968;2023-06-14T11:14:50;24.80;90.00
6822;DHT22;3449;48.728;8.968;2023-06-14T11:17:18;25.60;91.80
6822;DHT22;3449;48.728;8.968;2023-06-14T11:19:45;25.80;91.30
6822;DHT22;3449;48.728;8.968;2023-06-14T11:22:12;26.40;92.80
6822;DHT22;3449;48.728;8.968;2023-06-14T11:24:42;27.00;92.50
6822;DHT22;3449;48.728;8.968;2023-06-14T11:27:09;27.10;92.20
6822;DHT22;3449;48.728;8.968;2023-06-14T11:29:37;26.40;90.20
6822;DHT22;3449;48.728;8.968;2023-06-14T11:32:07;26.10;91.00
6822;DHT22;3449;48.728;8.968;2023-06-14T11:34:39;25.30;90.80
6822;DHT22;3449;48.728;8.968;2023-06-14T11:37:06;25.50;90.50
6822;DHT22;3449;48.728;8.968;2023-06-14T11:39:33;25.40;91.30
6822;DHT22;3449;48.728;8.968;2023-06-14T11:42:01;26.10;91.60
6822;DHT22;3449;48.728;8.968;2023-06-14T11:44:29;26.10;91.00
6822;DHT22;3449;48.728;8.968;2023-06-14T11:46:56;26.60;91.30
6822;DHT22;3449;48.728;8.968;2023-06-14T11:49:23;26.10;90.20
6822;DHT22;3449;48.728;8.968;2023-06-14T11:51:54;25.20;89.80
6822;DHT22;3449;48.728;8.968;2023-06-14T11:54:21;24.80;90.30
6822;DHT22;3449;48.728;8.968;2023-06-14T11:56:48;25.00;90.60
6822;DHT22;3449;48.728;8.968;2023-06-14T11:59:15;25.90;91.10
6822;DHT22;3449;48.728;8.968;2023-06-14T12:01:43;26.40;90.10
6822;DHT22;3449;48.728;8.968;2023-06-14T12:04:10;26.30;88.50
6822;DHT22;3449;48.728;8.968;2023-06-14T12:06:37;26.70;88.30
6822;DHT22;3449;48.728;8.968;2023-06-14T12:09:06;27.00;88.80
6822;DHT22;3449;48.728;8.968;2023-06-14T12:11:38;27.20;88.20
6822;DHT22;3449;48.728;8.968;2023-06-14T12:14:05;27.30;88.90
6822;DHT22;3449;48.728;8.968;2023-06-14T12:16:33;27.00;88.20
6822;DHT22;3449;48.728;8.968;2023-06-14T12:19:08;26.70;87.60
6822;DHT22;3449;48.728;8.968;2023-06-14T12:21:37;26.20;88.30
6822;DHT22;3449;48.728;8.968;2023-06-14T12:24:08;26.40;88.90
6822;DHT22;3449;48.728;8.968;2023-06-14T12:26:38;26.40;89.40
6822;DHT22;3449;48.728;8.968;2023-06-14T12:29:06;26.80;87.60
6822;DHT22;3449;48.728;8.968;2023-06-14T12:31:33;27.00;87.40
6822;DHT22;3449;48.728;8.968;2023-06-14T12:34:00;27.10;87.50
6822;DHT22;3449;48.728;8.968;2023-06-14T12:36:27;27.20;86.50
6822;DHT22;3449;48.728;8.968;2023-06-14T12:38:54;27.10;87.90
6822;DHT22;3449;48.728;8.968;2023-06-14T12:41:23;27.50;86.00
6822;DHT22;3449;48.728;8.968;2023-06-14T12:43:50;27.50;85.70
6822;DHT22;3449;48.728;8.968;2023-06-14T12:46:17;27.80;85.80
6822;DHT22;3449;48.728;8.968;2023-06-14T12:48:44;27.90;84.60
6822;DHT22;3449;48.728;8.968;2023-06-14T12:51:11;27.80;84.60
6822;DHT22;3449;48.728;8.968;2023-06-14T12:53:37;27.90;83.90
6822;DHT22;3449;48.728;8.968;2023-06-14T12:56:05;27.80;82.70
6822;DHT22;3449;48.728;8.968;2023-06-14T12:58:33;26.90;83.40
6822;DHT22;3449;48.728;8.968;2023-06-14T13:01:00;27.30;84.20
6822;DHT22;3449;48.728;8.968;2023-06-14T13:03:27;27.40;84.40
6822;DHT22;3449;48.728;8.968;2023-06-14T13:05:54;27.60;85.10
6822;DHT22;3449;48.728;8.968;2023-06-14T13:08:21;27.80;84.80
6822;DHT22;3449;48.728;8.968;2023-06-14T13:10:48;28.20;84.80
6822;DHT22;3449;48.728;8.968;2023-06-14T13:13:15;28.40;84.50
6822;DHT22;3449;48.728;8.968;2023-06-14T13:15:43;28.50;82.10
6822;DHT22;3449;48.728;8.968;2023-06-14T13:18:11;28.30;82.30
6822;DHT22;3449;48.728;8.968;2023-06-14T13:20:38;28.40;83.40
6822;DHT22;3449;48.728;8.968;2023-06-14T13:23:05;28.00;81.10
6822;DHT22;3449;48.728;8.968;2023-06-14T13:25:33;27.60;81.00
6822;DHT22;3449;48.728;8.968;2023-06-14T13:28:00;27.90;81.30
6822;DHT22;3449;48.728;8.968;2023-06-14T13:30:27;26.90;79.60
6822;DHT22;3449;48.728;8.968;2023-06-14T13:32:55;26.70;80.50
6822;DHT22;3449;48.728;8.968;2023-06-14T13:35:23;26.90;81.40
6822;DHT22;3449;48.728;8.968;2023-06-14T13:37:50;26.80;79.90
6822;DHT22;3449;48.728;8.968;2023-06-14T13:40:17;26.50;79.90
6822;DHT22;3449;48.728;8.968;2023-06-14T13:42:45;27.00;80.50
6822;DHT22;3449;48.728;8.968;2023-06-14T13:45:12;27.30;78.60
6822;DHT22;3449;48.728;8.968;2023-06-14T13:47:39;27.20;79.30
6822;DHT22;3449;48.728;8.968;2023-06-14T13:50:08;27.20;79.60
6822;DHT22;3449;48.728;8.968;2023-06-14T13:52:35;27.30;79.50
6822;DHT22;3449;48.728;8.968;2023-06-14T13:55:02;27.70;80.30
6822;DHT22;3449;48.728;8.968;2023-06-14T13:57:30;27.70;78.20
6822;DHT22;3449;48.728;8.968;2023-06-14T13:59:57;27.80;79.60
6822;DHT22;3449;48.728;8.968;2023-06-14T14:02:26;27.90;82.80
6822;DHT22;3449;48.728;8.968;2023-06-14T14:04:54;28.40;80.60
6822;DHT22;3449;48.728;8.968;2023-06-14T14:07:22;28.30;79.20
6822;DHT22;3449;48.728;8.968;2023-06-14T14:09:49;28.50;79.50
6822;DHT22;3449;48.728;8.968;2023-06-14T14:12:16;28.30;78.60
6822;DHT22;3449;48.728;8.968;2023-06-14T14:14:43;28.20;78.50
6822;DHT22;3449;48.728;8.968;2023-06-14T14:17:10;27.90;78.40
6822;DHT22;3449;48.728;8.968;2023-06-14T14:19:37;28.10;78.20
6822;DHT22;3449;48.728;8.968;2023-06-14T14:22:05;28.10;77.20
6822;DHT22;3449;48.728;8.968;2023-06-14T14:24:33;27.80;78.10
6822;DHT22;3449;48.728;8.968;2023-06-14T14:27:00;27.60;77.40
6822;DHT22;3449;48.728;8.968;2023-06-14T14:29:27;27.20;78.60
6822;DHT22;3449;48.728;8.968;2023-06-14T14:31:54;27.60;81.30
6822;DHT22;3449;48.728;8.968;2023-06-14T14:34:21;27.80;80.40
6822;DHT22;3449;48.728;8.968;2023-06-14T14:36:49;27.40;79.60
6822;DHT22;3449;48.728;8.968;2023-06-14T14:39:15;27.40;80.00
6822;DHT22;3449;48.728;8.968;2023-06-14T14:41:44;27.70;79.00
6822;DHT22;3449;48.728;8.968;2023-06-14T14:44:11;27.70;79.60
6822;DHT22;3449;48.728;8.968;2023-06-14T14:46:37;27.50;79.70
6822;DHT22;3449;48.728;8.968;2023-06-14T14:49:04;27.60;79.70
6822;DHT22;3449;48.728;8.968;2023-06-14T14:51:31;27.90;79.60
6822;DHT22;3449;48.728;8.968;2023-06-14T14:53:58;27.90;78.70
6822;DHT22;3449;48.728;8.968;2023-06-14T14:56:25;27.90;78.40
6822;DHT22;3449;48.728;8.968;2023-06-14T14:58:54;28.20;77.80
6822;DHT22;3449;48.728;8.968;2023-06-14T15:01:21;28.50;77.50
6822;DHT22;3449;48.728;8.968;2023-06-14T15:03:48;28.50;77.80
6822;DHT22;3449;48.728;8.968;2023-06-14T15:06:15;28.60;76.80
6822;DHT22;3449;48.728;8.968;2023-06-14T15:08:43;27.80;77.20
6822;DHT22;3449;48.728;8.968;2023-06-14T15:11:10;27.60;77.90
6822;DHT22;3449;48.728;8.968;2023-06-14T15:13:37;27.50;79.00
6822;DHT22;3449;48.728;8.968;2023-06-14T15:16:05;27.40;79.00
6822;DHT22;3449;48.728;8.968;2023-06-14T15:18:32;27.20;79.10
6822;DHT22;3449;48.728;8.968;2023-06-14T15:20:59;27.40;80.50
6822;DHT22;3449;48.728;8.968;2023-06-14T15:23:26;27.60;79.10
6822;DHT22;3449;48.728;8.968;2023-06-14T15:25:52;27.50;80.10
6822;DHT22;3449;48.728;8.968;2023-06-14T15:28:19;27.30;80.80
6822;DHT22;3449;48.728;8.968;2023-06-14T15:30:47;27.10;81.40
6822;DHT22;3449;48.728;8.968;2023-06-14T15:33:15;26.90;82.30
6822;DHT22;3449;48.728;8.968;2023-06-14T15:35:42;27.10;81.60
6822;DHT22;3449;48.728;8.968;2023-06-14T15:38:09;27.00;81.10
6822;DHT22;3449;48.728;8.968;2023-06-14T15:40:35;27.10;81.60
6822;DHT22;3449;48.728;8.968;2023-06-14T15:43:02;27.30;81.20
6822;DHT22;3449;48.728;8.968;2023-06-14T15:45:29;27.40;80.80
6822;DHT22;3449;48.728;8.968;2023-06-14T15:47:57;27.30;79.90
6822;DHT22;3449;48.728;8.968;2023-06-14T15:50:26;27.10;79.80
6822;DHT22;3449;48.728;8.968;2023-06-14T15:52:53;27.10;80.80
6822;DHT22;3449;48.728;8.968;2023-06-14T15:55:20;27.10;81.20
6822;DHT22;3449;48.728;8.968;2023-06-14T15:57:47;27.00;80.30
6822;DHT22;3449;48.728;8.968;2023-06-14T16:00:15;27.00;80.80
6822;DHT22;3449;48.728;8.968;2023-06-14T16:02:42;27.00;80.60
6822;DHT22;3449;48.728;8.968;2023-06-14T16:05:09;26.80;80.00
6822;DHT22;3449;48.728;8.968;2023-06-14T16:07:37;26.80;80.90
6822;DHT22;3449;48.728;8.968;2023-06-14T16:10:04;26.80;80.90